sensor_id;sensor_type;location;lat;lon;timestamp;temperature;humidity
12622;DHT22;6376;48.182;-1.644;2023-09-08T00:01:37;22.90;95.70
12622;DHT22;6376;48.182;-1.644;2023-09-08T00:04:03;22.90;95.70
12622;DHT22;6376;48.182;-1.644;2023-09-08T00:06:29;22.90;95.70
12622;DHT22;6376;48.182;-1.644;2023-09-08T00:08:55;22.90;95.70
12622;DHT22;6376;48.182;-1.644;2023-09-08T00:11:20;22.90;95.70
12622;DHT22;6376;48.182;-1.644;2023-09-08T00:13:46;22.90;95.80
12622;DHT22;6376;48.182;-1.644;2023-09-08T00:16:12;22.90;95.80
12622;DHT22;6376;48.182;-1.644;2023-09-08T00:18:37;22.90;95.80
12622;DHT22;6376;48.182;-1.644;2023-09-08T00:21:03;22.90;95.80
12622;DHT22;6376;48.182;-1.644;2023-09-08T00:23:28;22.90;95.80
12622;DHT22;6376;48.182;-1.644;2023-09-08T00:25:54;22.90;95.80
12622;DHT22;6376;48.182;-1.644;2023-09-08T00:28:20;22.90;95.80
12622;DHT22;6376;48.182;-1.644;2023-09-08T00:30:45;22.90;95.80
12622;DHT22;6376;48.182;-1.644;2023-09-08T00:33:11;22.90;95.80
12622;DHT22;6376;48.182;-1.644;2023-09-08T00:35:39;22.90;95.80
12622;DHT22;6376;48.182;-1.644;2023-09-08T00:38:04;22.90;95.80
12622;DHT22;6376;48.182;-1.644;2023-09-08T00:40:30;22.90;95.90
12622;DHT22;6376;48.182;-1.644;2023-09-08T00:42:56;22.90;95.90
12622;DHT22;6376;48.182;-1.644;2023-09-08T00:45:22;22.90;95.90
12622;DHT22;6376;48.182;-1.644;2023-09-08T00:47:48;22.80;95.90
12622;DHT22;6376;48.182;-1.644;2023-09-08T00:50:13;22.80;95.90
12622;DHT22;6376;48.182;-1.644;2023-09-08T00:52:39;22.80;95.90
12622;DHT22;6376;48.182;-1.644;2023-09-08T00:55:05;22.80;95.90
12622;DHT22;6376;48.182;-1.644;2023-09-08T00:57:31;22.80;95.90
12622;DHT22;6376;48.182;-1.644;2023-09-08T00:59:57;22.80;95.90
12622;DHT22;6376;48.182;-1.644;2023-09-08T01:02:23;22.80;95.90
12622;DHT22;6376;48.182;-1.644;2023-09-08T01:04:49;22.80;95.90
12622;DHT22;6376;48.182;-1.644;2023-09-08T01:07:15;22.80;95.90
12622;DHT22;6376;48.182;-1.644;2023-09-08T01:09:41;22.80;95.90
12622;DHT22;6376;48.182;-1.644;2023-09-08T01:12:07;22.80;96.00
12622;DHT22;6376;48.182;-1.644;2023-09-08T01:14:33;22.80;95.90
12622;DHT22;6376;48.182;-1.644;2023-09-08T01:16:59;22.80;96.00
12622;DHT22;6376;48.182;-1.644;2023-09-08T01:19:25;22.80;96.00
12622;DHT22;6376;48.182;-1.644;2023-09-08T01:22:11;22.80;96.00
12622;DHT22;6376;48.182;-1.644;2023-09-08T01:25:09;22.80;96.00
12622;DHT22;6376;48.182;-1.644;2023-09-08T01:27:40;22.80;96.00
12622;DHT22;6376;48.182;-1.644;2023-09-08T01:30:07;22.80;96.00
12622;DHT22;6376;48.182;-1.644;2023-09-08T01:32:34;22.80;96.10
12622;DHT22;6376;48.182;-1.644;2023-09-08T01:35:00;22.70;96.00
12622;DHT22;6376;48.182;-1.644;2023-09-08T01:37:26;22.70;96.00
12622;DHT22;6376;48.182;-1.644;2023-09-08T01:39:51;22.70;96.00
12622;DHT22;6376;48.182;-1.644;2023-09-08T01:42:17;22.70;96.10
12622;DHT22;6376;48.182;-1.644;2023-09-08T01:44:43;22.70;96.00
12622;DHT22;6376;48.182;-1.644;2023-09-08T01:47:08;22.70;96.10
12622;DHT22;6376;48.182;-1.644;2023-09-08T01:49:34;22.70;96.00
12622;DHT22;6376;48.182;-1.644;2023-09-08T01:51:59;22.70;96.00
12622;DHT22;6376;48.182;-1.644;2023-09-08T01:54:25;22.70;96.10
12622;DHT22;6376;48.182;-1.644;2023-09-08T01:56:51;22.70;96.10
12622;DHT22;6376;48.182;-1.644;2023-09-08T01:59:17;22.70;96.40
12622;DHT22;6376;48.182;-1.644;2023-09-08T02:01:42;22.70;96.10
12622;DHT22;6376;48.182;-1.644;2023-09-08T02:04:08;22.70;96.10
12622;DHT22;6376;48.182;-1.644;2023-09-08T02:06:34;22.60;96.10
12622;DHT22;6376;48.182;-1.644;2023-09-08T02:08:59;22.60;96.10
12622;DHT22;6376;48.182;-1.644;2023-09-08T02:11:25;22.60;96.10
12622;DHT22;6376;48.182;-1.644;2023-09-08T02:13:51;22.60;96.10
12622;DHT22;6376;48.182;-1.644;2023-09-08T02:16:17;22.60;96.10
12622;DHT22;6376;48.182;-1.644;2023-09-08T02:18:46;22.60;96.20
12622;DHT22;6376;48.182;-1.644;2023-09-08T02:21:12;22.60;96.10
12622;DHT22;6376;48.182;-1.644;2023-09-08T02:23:37;22.60;96.20
12622;DHT22;6376;48.182;-1.644;2023-09-08T02:26:03;22.60;96.20
12622;DHT22;6376;48.182;-1.644;2023-09-08T02:28:29;22.60;96.20
12622;DHT22;6376;48.182;-1.644;2023-09-08T02:30:55;22.60;96.10
12622;DHT22;6376;48.182;-1.644;2023-09-08T02:33:21;22.60;96.20
12622;DHT22;6376;48.182;-1.644;2023-09-08T02:35:47;22.60;96.20
12622;DHT22;6376;48.182;-1.644;2023-09-08T02:38:13;22.50;96.20
12622;DHT22;6376;48.182;-1.644;2023-09-08T02:40:38;22.60;96.20
12622;DHT22;6376;48.182;-1.644;2023-09-08T02:43:04;22.60;96.20
12622;DHT22;6376;48.182;-1.644;2023-09-08T02:45:30;22.50;96.30
12622;DHT22;6376;48.182;-1.644;2023-09-08T02:47:56;22.50;96.30
12622;DHT22;6376;48.182;-1.644;2023-09-08T02:50:22;22.50;96.30
12622;DHT22;6376;48.182;-1.644;2023-09-08T02:52:48;22.50;96.20
12622;DHT22;6376;48.182;-1.644;2023-09-08T02:55:13;22.50;96.30
12622;DHT22;6376;48.182;-1.644;2023-09-08T02:57:39;22.50;96.30
12622;DHT22;6376;48.182;-1.644;2023-09-08T03:00:06;22.50;96.30
12622;DHT22;6376;48.182;-1.644;2023-09-08T03:02:33;22.50;96.30
12622;DHT22;6376;48.182;-1.644;2023-09-08T03:04:58;22.50;96.30
12622;DHT22;6376;48.182;-1.644;2023-09-08T03:07:26;22.50;96.30
12622;DHT22;6376;48.182;-1.644;2023-09-08T03:09:51;22.50;96.30
12622;DHT22;6376;48.182;-1.644;2023-09-08T03:12:17;22.50;96.30
12622;DHT22;6376;48.182;-1.644;2023-09-08T03:14:43;22.50;96.40
12622;DHT22;6376;48.182;-1.644;2023-09-08T03:17:09;22.50;96.40
12622;DHT22;6376;48.182;-1.644;2023-09-08T03:19:34;22.40;96.30
12622;DHT22;6376;48.182;-1.644;2023-09-08T03:22:00;22.50;96.30
12622;DHT22;6376;48.182;-1.644;2023-09-08T03:24:25;22.50;96.30
12622;DHT22;6376;48.182;-1.644;2023-09-08T03:26:51;22.50;96.30
12622;DHT22;6376;48.182;-1.644;2023-09-08T03:29:17;22.50;96.30
12622;DHT22;6376;48.182;-1.644;2023-09-08T03:31:42;22.50;96.30
12622;DHT22;6376;48.182;-1.644;2023-09-08T03:34:08;22.40;96.40
12622;DHT22;6376;48.182;-1.644;2023-09-08T03:36:34;22.40;96.30
12622;DHT22;6376;48.182;-1.644;2023-09-08T03:39:03;22.40;96.30
12622;DHT22;6376;48.182;-1.644;2023-09-08T03:41:28;22.40;96.30
12622;DHT22;6376;48.182;-1.644;2023-09-08T03:43:54;22.40;96.30
12622;DHT22;6376;48.182;-1.644;2023-09-08T03:46:20;22.40;96.30
12622;DHT22;6376;48.182;-1.644;2023-09-08T03:48:46;22.40;96.30
12622;DHT22;6376;48.182;-1.644;2023-09-08T03:51:12;22.40;96.30
12622;DHT22;6376;48.182;-1.644;2023-09-08T03:53:37;22.40;96.30
12622;DHT22;6376;48.182;-1.644;2023-09-08T03:56:03;22.40;96.40
12622;DHT22;6376;48.182;-1.644;2023-09-08T03:58:29;22.40;96.40
12622;DHT22;6376;48.182;-1.644;2023-09-08T04:00:54;22.40;96.40
12622;DHT22;6376;48.182;-1.644;2023-09-08T04:03:20;22.40;96.40
12622;DHT22;6376;48.182;-1.644;2023-09-08T04:05:46;22.40;96.40
12622;DHT22;6376;48.182;-1.644;2023-09-08T04:08:11;22.40;96.40
12622;DHT22;6376;48.182;-1.644;2023-09-08T04:10:37;22.30;96.40
12622;DHT22;6376;48.182;-1.644;2023-09-08T04:13:03;22.30;96.40
12622;DHT22;6376;48.182;-1.644;2023-09-08T04:15:28;22.40;96.30
12622;DHT22;6376;48.182;-1.644;2023-09-08T04:17:54;22.40;96.30
12622;DHT22;6376;48.182;-1.644;2023-09-08T04:20:21;22.30;96.30
12622;DHT22;6376;48.182;-1.644;2023-09-08T04:22:46;22.40;96.30
12622;DHT22;6376;48.182;-1.644;2023-09-08T04:25:13;22.40;96.30
12622;DHT22;6376;48.182;-1.644;2023-09-08T04:27:38;22.40;96.30
12622;DHT22;6376;48.182;-1.644;2023-09-08T04:30:05;22.30;96.40
12622;DHT22;6376;48.182;-1.644;2023-09-08T04:32:32;22.30;96.30
12622;DHT22;6376;48.182;-1.644;2023-09-08T04:34:57;22.30;96.30
12622;DHT22;6376;48.182;-1.644;2023-09-08T04:37:23;22.30;96.30
12622;DHT22;6376;48.182;-1.644;2023-09-08T04:39:48;22.30;96.30
12622;DHT22;6376;48.182;-1.644;2023-09-08T04:42:14;22.30;96.30
12622;DHT22;6376;48.182;-1.644;2023-09-08T04:44:40;22.30;96.30
12622;DHT22;6376;48.182;-1.644;2023-09-08T04:47:05;22.30;96.30
12622;DHT22;6376;48.182;-1.644;2023-09-08T04:49:31;22.30;96.30
12622;DHT22;6376;48.182;-1.644;2023-09-08T04:51:57;22.20;96.30
12622;DHT22;6376;48.182;-1.644;2023-09-08T04:54:23;22.30;96.30
12622;DHT22;6376;48.182;-1.644;2023-09-08T04:56:52;22.30;96.30
12622;DHT22;6376;48.182;-1.644;2023-09-08T04:59:17;22.20;96.30
12622;DHT22;6376;48.182;-1.644;2023-09-08T05:01:43;22.20;96.70
12622;DHT22;6376;48.182;-1.644;2023-09-08T05:04:09;22.20;96.40
12622;DHT22;6376;48.182;-1.644;2023-09-08T05:06:35;22.20;96.30
12622;DHT22;6376;48.182;-1.644;2023-09-08T05:09:01;22.20;96.40
12622;DHT22;6376;48.182;-1.644;2023-09-08T05:11:27;22.20;96.30
12622;DHT22;6376;48.182;-1.644;2023-09-08T05:13:53;22.20;96.30
12622;DHT22;6376;48.182;-1.644;2023-09-08T05:16:18;22.20;96.30
12622;DHT22;6376;48.182;-1.644;2023-09-08T05:18:51;22.20;96.30
12622;DHT22;6376;48.182;-1.644;2023-09-08T05:21:17;22.20;96.30
12622;DHT22;6376;48.182;-1.644;2023-09-08T05:23:42;22.20;96.20
12622;DHT22;6376;48.182;-1.644;2023-09-08T05:26:08;22.20;96.30
12622;DHT22;6376;48.182;-1.644;2023-09-08T05:28:34;22.20;96.20
12622;DHT22;6376;48.182;-1.644;2023-09-08T05:30:59;22.20;96.20
12622;DHT22;6376;48.182;-1.644;2023-09-08T05:33:25;22.20;96.20
12622;DHT22;6376;48.182;-1.644;2023-09-08T05:35:50;22.20;96.20
12622;DHT22;6376;48.182;-1.644;2023-09-08T05:38:16;22.10;96.20
12622;DHT22;6376;48.182;-1.644;2023-09-08T05:40:42;22.10;96.20
12622;DHT22;6376;48.182;-1.644;2023-09-08T05:43:08;22.10;96.20
12622;DHT22;6376;48.182;-1.644;2023-09-08T05:45:34;22.20;96.20
12622;DHT22;6376;48.182;-1.644;2023-09-08T05:48:00;22.10;96.30
12622;DHT22;6376;48.182;-1.644;2023-09-08T05:50:26;22.20;96.30
12622;DHT22;6376;48.182;-1.644;2023-09-08T05:52:52;22.20;96.40
12622;DHT22;6376;48.182;-1.644;2023-09-08T05:55:18;22.10;96.40
12622;DHT22;6376;48.182;-1.644;2023-09-08T05:57:43;22.10;96.40
12622;DHT22;6376;48.182;-1.644;2023-09-08T06:00:09;22.10;96.50
12622;DHT22;6376;48.182;-1.644;2023-09-08T06:02:35;22.10;96.50
12622;DHT22;6376;48.182;-1.644;2023-09-08T06:05:01;22.10;96.30
12622;DHT22;6376;48.182;-1.644;2023-09-08T06:07:27;22.20;96.30
12622;DHT22;6376;48.182;-1.644;2023-09-08T06:09:52;22.10;96.30
12622;DHT22;6376;48.182;-1.644;2023-09-08T06:12:18;22.10;96.30
12622;DHT22;6376;48.182;-1.644;2023-09-08T06:14:43;22.20;96.30
12622;DHT22;6376;48.182;-1.644;2023-09-08T06:17:10;22.20;96.30
12622;DHT22;6376;48.182;-1.644;2023-09-08T06:19:36;22.20;96.30
12622;DHT22;6376;48.182;-1.644;2023-09-08T06:22:01;22.20;96.40
12622;DHT22;6376;48.182;-1.644;2023-09-08T06:24:27;22.10;96.40
12622;DHT22;6376;48.182;-1.644;2023-09-08T06:26:53;22.10;96.40
12622;DHT22;6376;48.182;-1.644;2023-09-08T06:29:18;22.10;96.40
12622;DHT22;6376;48.182;-1.644;2023-09-08T06:31:44;22.10;96.30
12622;DHT22;6376;48.182;-1.644;2023-09-08T06:34:10;22.10;96.30
12622;DHT22;6376;48.182;-1.644;2023-09-08T06:36:35;22.10;96.30
12622;DHT22;6376;48.182;-1.644;2023-09-08T06:39:01;22.10;96.30
12622;DHT22;6376;48.182;-1.644;2023-09-08T06:41:27;22.10;96.30
12622;DHT22;6376;48.182;-1.644;2023-09-08T06:43:54;22.10;96.40
12622;DHT22;6376;48.182;-1.644;2023-09-08T06:46:19;22.10;96.40
12622;DHT22;6376;48.182;-1.644;2023-09-08T06:48:45;22.10;96.50
12622;DHT22;6376;48.182;-1.644;2023-09-08T06:51:10;22.10;96.40
12622;DHT22;6376;48.182;-1.644;2023-09-08T06:53:36;22.10;96.40
12622;DHT22;6376;48.182;-1.644;2023-09-08T06:56:02;22.10;96.40
12622;DHT22;6376;48.182;-1.644;2023-09-08T06:58:28;22.20;96.50
12622;DHT22;6376;48.182;-1.644;2023-09-08T07:00:54;22.20;96.50
12622;DHT22;6376;48.182;-1.644;2023-09-08T07:03:20;22.20;96.40
12622;DHT22;6376;48.182;-1.644;2023-09-08T07:05:48;22.20;96.40
12622;DHT22;6376;48.182;-1.644;2023-09-08T07:08:14;22.20;96.40
12622;DHT22;6376;48.182;-1.644;2023-09-08T07:10:40;22.30;96.40
12622;DHT22;6376;48.182;-1.644;2023-09-08T07:13:05;22.30;96.50
12622;DHT22;6376;48.182;-1.644;2023-09-08T07:15:31;22.30;96.40
12622;DHT22;6376;48.182;-1.644;2023-09-08T07:17:57;22.30;96.40
12622;DHT22;6376;48.182;-1.644;2023-09-08T07:20:22;22.30;96.50
12622;DHT22;6376;48.182;-1.644;2023-09-08T07:22:48;22.30;96.50
12622;DHT22;6376;48.182;-1.644;2023-09-08T07:25:14;22.30;96.60
12622;DHT22;6376;48.182;-1.644;2023-09-08T07:27:39;22.30;96.60
12622;DHT22;6376;48.182;-1.644;2023-09-08T07:30:05;22.30;96.80
12622;DHT22;6376;48.182;-1.644;2023-09-08T07:32:31;22.40;96.80
12622;DHT22;6376;48.182;-1.644;2023-09-08T07:34:57;22.40;96.50
12622;DHT22;6376;48.182;-1.644;2023-09-08T07:37:22;22.50;96.30
12622;DHT22;6376;48.182;-1.644;2023-09-08T07:39:49;22.50;96.30
12622;DHT22;6376;48.182;-1.644;2023-09-08T07:42:15;22.50;96.20
12622;DHT22;6376;48.182;-1.644;2023-09-08T07:44:40;22.60;96.20
12622;DHT22;6376;48.182;-1.644;2023-09-08T07:59:13;22.60;95.60
12622;DHT22;6376;48.182;-1.644;2023-09-08T08:01:39;22.80;95.30
12622;DHT22;6376;48.182;-1.644;2023-09-08T08:04:04;22.80;95.00
12622;DHT22;6376;48.182;-1.644;2023-09-08T08:06:30;22.80;94.80
12622;DHT22;6376;48.182;-1.644;2023-09-08T08:08:56;22.80;94.90
12622;DHT22;6376;48.182;-1.644;2023-09-08T08:11:21;22.80;95.00
12622;DHT22;6376;48.182;-1.644;2023-09-08T08:13:47;22.80;95.10
12622;DHT22;6376;48.182;-1.644;2023-09-08T08:16:13;22.80;95.10
12622;DHT22;6376;48.182;-1.644;2023-09-08T08:18:38;22.70;95.10
12622;DHT22;6376;48.182;-1.644;2023-09-08T08:21:04;22.80;95.10
12622;DHT22;6376;48.182;-1.644;2023-09-08T08:23:30;22.80;95.10
12622;DHT22;6376;48.182;-1.644;2023-09-08T08:25:56;22.80;95.10
12622;DHT22;6376;48.182;-1.644;2023-09-08T08:28:22;22.80;95.10
12622;DHT22;6376;48.182;-1.644;2023-09-08T08:30:49;22.80;95.10
12622;DHT22;6376;48.182;-1.644;2023-09-08T08:33:14;22.70;95.00
12622;DHT22;6376;48.182;-1.644;2023-09-08T08:35:40;22.80;95.10
12622;DHT22;6376;48.182;-1.644;2023-09-08T08:38:05;22.70;95.10
12622;DHT22;6376;48.182;-1.644;2023-09-08T08:40:32;22.80;95.10
12622;DHT22;6376;48.182;-1.644;2023-09-08T08:42:59;22.70;95.10
12622;DHT22;6376;48.182;-1.644;2023-09-08T08:45:26;22.70;95.10
12622;DHT22;6376;48.182;-1.644;2023-09-08T08:47:53;22.80;95.10
12622;DHT22;6376;48.182;-1.644;2023-09-08T08:50:19;22.80;95.10
12622;DHT22;6376;48.182;-1.644;2023-09-08T08:52:46;22.80;95.00
12622;DHT22;6376;48.182;-1.644;2023-09-08T08:55:12;22.80;95.00
12622;DHT22;6376;48.182;-1.644;2023-09-08T08:57:40;22.80;95.00
12622;DHT22;6376;48.182;-1.644;2023-09-08T09:00:10;22.80;95.00
12622;DHT22;6376;48.182;-1.644;2023-09-08T09:02:41;22.80;95.00
12622;DHT22;6376;48.182;-1.644;2023-09-08T09:05:09;22.80;94.90
12622;DHT22;6376;48.182;-1.644;2023-09-08T09:07:36;22.90;95.10
12622;DHT22;6376;48.182;-1.644;2023-09-08T09:10:06;23.00;94.40
12622;DHT22;6376;48.182;-1.644;2023-09-08T09:12:32;23.10;94.20
12622;DHT22;6376;48.182;-1.644;2023-09-08T09:14:59;23.10;94.10
12622;DHT22;6376;48.182;-1.644;2023-09-08T09:17:25;23.30;94.00
12622;DHT22;6376;48.182;-1.644;2023-09-08T09:20:11;23.40;93.70
12622;DHT22;6376;48.182;-1.644;2023-09-08T09:22:37;23.30;93.60
12622;DHT22;6376;48.182;-1.644;2023-09-08T09:25:03;23.20;93.90
12622;DHT22;6376;48.182;-1.644;2023-09-08T09:27:33;23.10;94.10
12622;DHT22;6376;48.182;-1.644;2023-09-08T09:30:01;23.10;94.30
12622;DHT22;6376;48.182;-1.644;2023-09-08T09:32:26;23.00;94.30
12622;DHT22;6376;48.182;-1.644;2023-09-08T09:34:54;23.00;94.40
12622;DHT22;6376;48.182;-1.644;2023-09-08T09:37:22;23.00;94.50
12622;DHT22;6376;48.182;-1.644;2023-09-08T09:39:52;23.00;94.50
12622;DHT22;6376;48.182;-1.644;2023-09-08T09:42:18;23.00;94.50
12622;DHT22;6376;48.182;-1.644;2023-09-08T09:44:47;22.90;94.50
12622;DHT22;6376;48.182;-1.644;2023-09-08T09:47:13;23.00;94.50
12622;DHT22;6376;48.182;-1.644;2023-09-08T09:49:46;23.00;94.60
12622;DHT22;6376;48.182;-1.644;2023-09-08T09:52:13;23.00;94.50
12622;DHT22;6376;48.182;-1.644;2023-09-08T09:54:43;23.00;94.40
12622;DHT22;6376;48.182;-1.644;2023-09-08T09:57:13;23.10;94.30
12622;DHT22;6376;48.182;-1.644;2023-09-08T09:59:42;23.10;94.30
12622;DHT22;6376;48.182;-1.644;2023-09-08T10:02:14;23.10;94.30
12622;DHT22;6376;48.182;-1.644;2023-09-08T10:04:41;23.10;94.30
12622;DHT22;6376;48.182;-1.644;2023-09-08T10:07:07;23.10;94.30
12622;DHT22;6376;48.182;-1.644;2023-09-08T10:09:33;23.10;94.30
12622;DHT22;6376;48.182;-1.644;2023-09-08T10:12:05;23.10;94.30
12622;DHT22;6376;48.182;-1.644;2023-09-08T10:14:32;23.10;94.30
12622;DHT22;6376;48.182;-1.644;2023-09-08T10:17:01;23.20;94.30
12622;DHT22;6376;48.182;-1.644;2023-09-08T10:19:27;23.20;94.10
12622;DHT22;6376;48.182;-1.644;2023-09-08T10:21:56;23.20;94.10
12622;DHT22;6376;48.182;-1.644;2023-09-08T10:24:29;23.20;94.10
12622;DHT22;6376;48.182;-1.644;2023-09-08T10:27:05;23.20;94.10
12622;DHT22;6376;48.182;-1.644;2023-09-08T10:29:32;23.20;94.10
12622;DHT22;6376;48.182;-1.644;2023-09-08T10:31:59;23.20;94.10
12622;DHT22;6376;48.182;-1.644;2023-09-08T10:34:25;23.10;94.20
12622;DHT22;6376;48.182;-1.644;2023-09-08T10:36:52;23.20;94.20
12622;DHT22;6376;48.182;-1.644;2023-09-08T10:39:33;23.20;94.30
12622;DHT22;6376;48.182;-1.644;2023-09-08T10:47:26;23.10;94.30
12622;DHT22;6376;48.182;-1.644;2023-09-08T10:49:56;23.20;94.30
12622;DHT22;6376;48.182;-1.644;2023-09-08T10:52:24;23.20;94.30
12622;DHT22;6376;48.182;-1.644;2023-09-08T10:54:51;23.20;94.30
12622;DHT22;6376;48.182;-1.644;2023-09-08T10:57:22;23.20;94.30
12622;DHT22;6376;48.182;-1.644;2023-09-08T10:59:59;23.20;94.30
12622;DHT22;6376;48.182;-1.644;2023-09-08T11:02:48;23.10;94.30
12622;DHT22;6376;48.182;-1.644;2023-09-08T11:05:15;23.20;94.20
12622;DHT22;6376;48.182;-1.644;2023-09-08T11:07:42;23.30;94.10
12622;DHT22;6376;48.182;-1.644;2023-09-08T11:10:09;23.30;94.00
12622;DHT22;6376;48.182;-1.644;2023-09-08T11:12:35;23.40;93.70
12622;DHT22;6376;48.182;-1.644;2023-09-08T11:15:03;23.60;93.50
12622;DHT22;6376;48.182;-1.644;2023-09-08T11:17:35;23.60;93.20
12622;DHT22;6376;48.182;-1.644;2023-09-08T11:20:02;23.70;93.00
12622;DHT22;6376;48.182;-1.644;2023-09-08T11:22:36;23.80;92.90
12622;DHT22;6376;48.182;-1.644;2023-09-08T11:25:02;23.80;92.90
12622;DHT22;6376;48.182;-1.644;2023-09-08T11:27:31;23.70;93.00
12622;DHT22;6376;48.182;-1.644;2023-09-08T11:29:57;23.80;92.90
12622;DHT22;6376;48.182;-1.644;2023-09-08T11:32:24;23.90;92.70
12622;DHT22;6376;48.182;-1.644;2023-09-08T11:34:50;23.90;92.60
12622;DHT22;6376;48.182;-1.644;2023-09-08T11:37:17;24.00;92.50
12622;DHT22;6376;48.182;-1.644;2023-09-08T11:39:44;24.00;92.50
12622;DHT22;6376;48.182;-1.644;2023-09-08T11:42:12;23.90;92.60
12622;DHT22;6376;48.182;-1.644;2023-09-08T11:44:38;23.90;92.60
12622;DHT22;6376;48.182;-1.644;2023-09-08T11:47:06;23.90;92.60
12622;DHT22;6376;48.182;-1.644;2023-09-08T11:52:01;23.90;92.90
12622;DHT22;6376;48.182;-1.644;2023-09-08T11:54:27;23.80;93.30
12622;DHT22;6376;48.182;-1.644;2023-09-08T11:56:53;23.80;93.00
12622;DHT22;6376;48.182;-1.644;2023-09-08T11:59:19;23.80;93.00
12622;DHT22;6376;48.182;-1.644;2023-09-08T12:01:45;23.80;93.00
12622;DHT22;6376;48.182;-1.644;2023-09-08T12:04:20;23.80;93.00
12622;DHT22;6376;48.182;-1.644;2023-09-08T12:06:49;23.80;93.00
12622;DHT22;6376;48.182;-1.644;2023-09-08T12:09:16;23.70;93.00
12622;DHT22;6376;48.182;-1.644;2023-09-08T12:11:42;23.80;93.10
12622;DHT22;6376;48.182;-1.644;2023-09-08T12:14:12;23.80;93.20
12622;DHT22;6376;48.182;-1.644;2023-09-08T12:16:39;23.70;93.10
12622;DHT22;6376;48.182;-1.644;2023-09-08T12:19:05;23.70;93.10
12622;DHT22;6376;48.182;-1.644;2023-09-08T12:21:32;23.80;93.20
12622;DHT22;6376;48.182;-1.644;2023-09-08T12:23:58;23.80;93.20
12622;DHT22;6376;48.182;-1.644;2023-09-08T12:26:27;23.80;93.20
12622;DHT22;6376;48.182;-1.644;2023-09-08T12:28:53;23.80;93.20
12622;DHT22;6376;48.182;-1.644;2023-09-08T12:31:18;23.80;93.20
12622;DHT22;6376;48.182;-1.644;2023-09-08T12:33:44;23.80;93.20
12622;DHT22;6376;48.182;-1.644;2023-09-08T12:36:17;23.80;93.20
12622;DHT22;6376;48.182;-1.644;2023-09-08T12:38:52;23.80;93.20
12622;DHT22;6376;48.182;-1.644;2023-09-08T12:41:19;23.80;93.20
12622;DHT22;6376;48.182;-1.644;2023-09-08T12:43:45;23.80;93.20
12622;DHT22;6376;48.182;-1.644;2023-09-08T12:46:11;23.80;93.20
12622;DHT22;6376;48.182;-1.644;2023-09-08T12:48:37;23.80;93.20
12622;DHT22;6376;48.182;-1.644;2023-09-08T12:51:03;23.80;93.20
12622;DHT22;6376;48.182;-1.644;2023-09-08T12:53:34;23.80;93.20
12622;DHT22;6376;48.182;-1.644;2023-09-08T12:56:01;23.80;93.20
12622;DHT22;6376;48.182;-1.644;2023-09-08T12:58:26;23.70;93.20
12622;DHT22;6376;48.182;-1.644;2023-09-08T13:00:53;23.80;93.20
12622;DHT22;6376;48.182;-1.644;2023-09-08T13:03:19;23.80;93.30
12622;DHT22;6376;48.182;-1.644;2023-09-08T13:05:45;23.70;93.30
12622;DHT22;6376;48.182;-1.644;2023-09-08T13:08:10;23.70;93.30
12622;DHT22;6376;48.182;-1.644;2023-09-08T13:10:36;23.70;93.30
12622;DHT22;6376;48.182;-1.644;2023-09-08T13:13:03;23.70;93.30
12622;DHT22;6376;48.182;-1.644;2023-09-08T13:15:29;23.80;93.30
12622;DHT22;6376;48.182;-1.644;2023-09-08T13:17:55;23.80;93.30
12622;DHT22;6376;48.182;-1.644;2023-09-08T13:20:21;23.70;93.30
12622;DHT22;6376;48.182;-1.644;2023-09-08T13:22:47;23.70;93.30
12622;DHT22;6376;48.182;-1.644;2023-09-08T13:25:13;23.70;93.30
12622;DHT22;6376;48.182;-1.644;2023-09-08T13:27:41;23.70;93.30
12622;DHT22;6376;48.182;-1.644;2023-09-08T13:30:11;23.70;93.30
12622;DHT22;6376;48.182;-1.644;2023-09-08T13:32:37;23.70;93.30
12622;DHT22;6376;48.182;-1.644;2023-09-08T13:35:03;23.80;93.40
12622;DHT22;6376;48.182;-1.644;2023-09-08T13:37:29;23.80;93.30
12622;DHT22;6376;48.182;-1.644;2023-09-08T13:39:56;23.70;93.40
12622;DHT22;6376;48.182;-1.644;2023-09-08T13:42:22;23.70;93.30
12622;DHT22;6376;48.182;-1.644;2023-09-08T13:44:48;23.70;93.30
12622;DHT22;6376;48.182;-1.644;2023-09-08T13:47:13;23.70;93.40
12622;DHT22;6376;48.182;-1.644;2023-09-08T13:49:39;23.70;93.40
12622;DHT22;6376;48.182;-1.644;2023-09-08T13:52:05;23.70;93.40
12622;DHT22;6376;48.182;-1.644;2023-09-08T13:54:32;23.70;93.40
12622;DHT22;6376;48.182;-1.644;2023-09-08T13:56:59;23.70;93.40
12622;DHT22;6376;48.182;-1.644;2023-09-08T13:59:26;23.70;93.40
12622;DHT22;6376;48.182;-1.644;2023-09-08T14:01:52;23.70;93.50
12622;DHT22;6376;48.182;-1.644;2023-09-08T14:04:19;23.70;93.50
12622;DHT22;6376;48.182;-1.644;2023-09-08T14:06:45;23.80;93.50
12622;DHT22;6376;48.182;-1.644;2023-09-08T14:09:10;23.70;93.40
12622;DHT22;6376;48.182;-1.644;2023-09-08T14:11:36;23.70;93.50
12622;DHT22;6376;48.182;-1.644;2023-09-08T14:14:02;23.80;93.50
12622;DHT22;6376;48.182;-1.644;2023-09-08T14:16:28;23.70;93.40
12622;DHT22;6376;48.182;-1.644;2023-09-08T14:18:54;23.70;93.40
12622;DHT22;6376;48.182;-1.644;2023-09-08T14:21:20;23.80;93.40
12622;DHT22;6376;48.182;-1.644;2023-09-08T14:23:46;23.80;93.40
12622;DHT22;6376;48.182;-1.644;2023-09-08T14:26:12;23.80;93.40
12622;DHT22;6376;48.182;-1.644;2023-09-08T14:28:38;23.80;93.40
12622;DHT22;6376;48.182;-1.644;2023-09-08T14:31:03;23.80;93.40
12622;DHT22;6376;48.182;-1.644;2023-09-08T14:33:29;23.80;93.50
12622;DHT22;6376;48.182;-1.644;2023-09-08T14:35:55;23.70;93.50
12622;DHT22;6376;48.182;-1.644;2023-09-08T14:38:21;23.70;93.50
12622;DHT22;6376;48.182;-1.644;2023-09-08T14:40:55;23.80;93.50
12622;DHT22;6376;48.182;-1.644;2023-09-08T14:43:21;23.80;93.50
12622;DHT22;6376;48.182;-1.644;2023-09-08T14:45:46;23.80;93.50
12622;DHT22;6376;48.182;-1.644;2023-09-08T14:48:12;23.70;93.50
12622;DHT22;6376;48.182;-1.644;2023-09-08T14:50:38;23.80;93.50
12622;DHT22;6376;48.182;-1.644;2023-09-08T14:53:03;23.80;93.50
12622;DHT22;6376;48.182;-1.644;2023-09-08T14:55:29;23.80;93.50
12622;DHT22;6376;48.182;-1.644;2023-09-08T14:57:55;23.80;93.50
12622;DHT22;6376;48.182;-1.644;2023-09-08T15:00:21;23.80;93.50
12622;DHT22;6376;48.182;-1.644;2023-09-08T15:02:46;23.80;93.60
12622;DHT22;6376;48.182;-1.644;2023-09-08T15:05:12;23.80;93.60
12622;DHT22;6376;48.182;-1.644;2023-09-08T15:07:38;23.80;93.60
12622;DHT22;6376;48.182;-1.644;2023-09-08T15:10:04;23.80;93.50
12622;DHT22;6376;48.182;-1.644;2023-09-08T15:12:29;23.80;93.60
12622;DHT22;6376;48.182;-1.644;2023-09-08T15:14:55;23.80;93.60
12622;DHT22;6376;48.182;-1.644;2023-09-08T15:17:21;23.80;93.60
12622;DHT22;6376;48.182;-1.644;2023-09-08T15:19:47;23.80;93.60
12622;DHT22;6376;48.182;-1.644;2023-09-08T15:22:12;23.80;93.60
12622;DHT22;6376;48.182;-1.644;2023-09-08T15:24:38;23.80;93.50
12622;DHT22;6376;48.182;-1.644;2023-09-08T15:27:04;23.80;93.50
12622;DHT22;6376;48.182;-1.644;2023-09-08T15:29:30;23.80;93.50
12622;DHT22;6376;48.182;-1.644;2023-09-08T15:31:55;23.80;93.60
12622;DHT22;6376;48.182;-1.644;2023-09-08T15:34:21;23.80;93.50
12622;DHT22;6376;48.182;-1.644;2023-09-08T15:36:47;23.80;93.50
12622;DHT22;6376;48.182;-1.644;2023-09-08T15:39:14;23.80;93.60
12622;DHT22;6376;48.182;-1.644;2023-09-08T15:41:40;23.80;93.50
12622;DHT22;6376;48.182;-1.644;2023-09-08T15:44:06;23.80;93.60
12622;DHT22;6376;48.182;-1.644;2023-09-08T15:46:32;23.80;93.60